sensor_id;sensor_type;location;lat;lon;timestamp;temperature;humidity
14985;DHT22;7588;62.368;25.902;2023-05-23T00:01:56;10.50;99.90
14985;DHT22;7588;62.368;25.902;2023-05-23T00:04:23;10.60;99.90
14985;DHT22;7588;62.368;25.902;2023-05-23T00:06:51;10.60;99.90
14985;DHT22;7588;62.368;25.902;2023-05-23T00:09:18;10.70;99.90
14985;DHT22;7588;62.368;25.902;2023-05-23T00:11:44;10.70;99.90
14985;DHT22;7588;62.368;25.902;2023-05-23T00:14:13;10.70;99.90
14985;DHT22;7588;62.368;25.902;2023-05-23T00:16:40;10.70;99.90
14985;DHT22;7588;62.368;25.902;2023-05-23T00:19:07;10.70;99.90
14985;DHT22;7588;62.368;25.902;2023-05-23T00:21:33;10.80;99.90
14985;DHT22;7588;62.368;25.902;2023-05-23T00:23:59;10.90;99.90
14985;DHT22;7588;62.368;25.902;2023-05-23T00:26:27;10.90;99.90
14985;DHT22;7588;62.368;25.902;2023-05-23T00:28:54;11.00;99.90
14985;DHT22;7588;62.368;25.902;2023-05-23T00:31:21;11.00;99.90
14985;DHT22;7588;62.368;25.902;2023-05-23T00:33:46;11.10;99.90
14985;DHT22;7588;62.368;25.902;2023-05-23T00:36:12;11.20;99.90
14985;DHT22;7588;62.368;25.902;2023-05-23T00:38:38;11.30;99.90
14985;DHT22;7588;62.368;25.902;2023-05-23T00:41:07;11.20;99.90
14985;DHT22;7588;62.368;25.902;2023-05-23T00:43:33;11.20;99.90
14985;DHT22;7588;62.368;25.902;2023-05-23T00:45:59;11.20;99.90
14985;DHT22;7588;62.368;25.902;2023-05-23T00:48:25;11.40;99.90
14985;DHT22;7588;62.368;25.902;2023-05-23T00:50:52;11.50;99.90
14985;DHT22;7588;62.368;25.902;2023-05-23T00:53:18;11.60;99.90
14985;DHT22;7588;62.368;25.902;2023-05-23T00:55:45;11.70;99.90
14985;DHT22;7588;62.368;25.902;2023-05-23T00:58:11;11.70;99.90
14985;DHT22;7588;62.368;25.902;2023-05-23T01:00:37;11.70;99.90
14985;DHT22;7588;62.368;25.902;2023-05-23T01:03:03;11.60;99.90
14985;DHT22;7588;62.368;25.902;2023-05-23T01:05:32;11.50;99.90
14985;DHT22;7588;62.368;25.902;2023-05-23T01:07:57;11.40;99.90
14985;DHT22;7588;62.368;25.902;2023-05-23T01:10:28;11.40;99.90
14985;DHT22;7588;62.368;25.902;2023-05-23T01:18:36;11.20;99.90
14985;DHT22;7588;62.368;25.902;2023-05-23T01:21:10;11.20;99.90
14985;DHT22;7588;62.368;25.902;2023-05-23T01:28:55;11.10;99.90
14985;DHT22;7588;62.368;25.902;2023-05-23T01:31:24;11.20;99.90
14985;DHT22;7588;62.368;25.902;2023-05-23T01:33:53;11.20;99.90
14985;DHT22;7588;62.368;25.902;2023-05-23T01:36:20;11.30;99.90
14985;DHT22;7588;62.368;25.902;2023-05-23T01:38:46;11.20;99.90
14985;DHT22;7588;62.368;25.902;2023-05-23T01:41:12;11.20;99.90
14985;DHT22;7588;62.368;25.902;2023-05-23T01:43:38;11.20;99.90
14985;DHT22;7588;62.368;25.902;2023-05-23T01:46:05;11.20;99.90
14985;DHT22;7588;62.368;25.902;2023-05-23T01:48:32;11.10;99.90
14985;DHT22;7588;62.368;25.902;2023-05-23T01:50:58;11.10;99.90
14985;DHT22;7588;62.368;25.902;2023-05-23T01:53:24;11.10;99.90
14985;DHT22;7588;62.368;25.902;2023-05-23T01:55:51;11.10;99.90
14985;DHT22;7588;62.368;25.902;2023-05-23T01:58:17;11.10;99.90
14985;DHT22;7588;62.368;25.902;2023-05-23T02:00:43;11.10;99.90
14985;DHT22;7588;62.368;25.902;2023-05-23T02:03:09;11.10;99.90
14985;DHT22;7588;62.368;25.902;2023-05-23T02:05:36;11.00;99.90
14985;DHT22;7588;62.368;25.902;2023-05-23T02:08:01;11.00;99.90
14985;DHT22;7588;62.368;25.902;2023-05-23T02:10:27;11.00;99.90
14985;DHT22;7588;62.368;25.902;2023-05-23T02:12:53;11.00;99.90
14985;DHT22;7588;62.368;25.902;2023-05-23T02:15:19;11.10;99.90
14985;DHT22;7588;62.368;25.902;2023-05-23T02:17:45;11.10;99.90
14985;DHT22;7588;62.368;25.902;2023-05-23T02:20:12;11.10;99.90
14985;DHT22;7588;62.368;25.902;2023-05-23T02:22:38;11.10;99.90
14985;DHT22;7588;62.368;25.902;2023-05-23T02:25:05;11.10;99.90
14985;DHT22;7588;62.368;25.902;2023-05-23T02:27:31;11.10;99.90
14985;DHT22;7588;62.368;25.902;2023-05-23T02:29:56;11.00;99.90
14985;DHT22;7588;62.368;25.902;2023-05-23T02:32:22;11.00;99.90
14985;DHT22;7588;62.368;25.902;2023-05-23T02:34:47;11.00;99.90
14985;DHT22;7588;62.368;25.902;2023-05-23T02:37:14;11.00;99.90
14985;DHT22;7588;62.368;25.902;2023-05-23T02:39:41;11.00;99.90
14985;DHT22;7588;62.368;25.902;2023-05-23T02:42:07;11.00;99.90
14985;DHT22;7588;62.368;25.902;2023-05-23T02:44:33;11.00;99.90
14985;DHT22;7588;62.368;25.902;2023-05-23T02:46:59;11.00;99.90
14985;DHT22;7588;62.368;25.902;2023-05-23T02:49:24;11.10;99.90
14985;DHT22;7588;62.368;25.902;2023-05-23T02:51:50;11.10;99.90
14985;DHT22;7588;62.368;25.902;2023-05-23T02:54:16;11.10;99.90
14985;DHT22;7588;62.368;25.902;2023-05-23T02:56:44;11.20;99.90
14985;DHT22;7588;62.368;25.902;2023-05-23T02:59:09;11.20;99.90
14985;DHT22;7588;62.368;25.902;2023-05-23T03:01:36;11.30;99.90
14985;DHT22;7588;62.368;25.902;2023-05-23T03:04:02;11.30;99.90
14985;DHT22;7588;62.368;25.902;2023-05-23T03:06:28;11.40;99.90
14985;DHT22;7588;62.368;25.902;2023-05-23T03:08:56;11.40;99.90
14985;DHT22;7588;62.368;25.902;2023-05-23T03:11:22;11.50;99.90
14985;DHT22;7588;62.368;25.902;2023-05-23T03:13:48;11.50;99.90
14985;DHT22;7588;62.368;25.902;2023-05-23T03:16:13;11.50;99.90
14985;DHT22;7588;62.368;25.902;2023-05-23T03:18:39;11.50;99.90
14985;DHT22;7588;62.368;25.902;2023-05-23T03:21:06;11.60;99.90
14985;DHT22;7588;62.368;25.902;2023-05-23T03:23:32;11.70;99.90
14985;DHT22;7588;62.368;25.902;2023-05-23T03:25:58;11.70;99.90
14985;DHT22;7588;62.368;25.902;2023-05-23T03:28:24;11.70;99.90
14985;DHT22;7588;62.368;25.902;2023-05-23T03:30:50;11.80;99.90
14985;DHT22;7588;62.368;25.902;2023-05-23T03:33:15;11.80;99.90
14985;DHT22;7588;62.368;25.902;2023-05-23T03:35:41;11.90;99.90
14985;DHT22;7588;62.368;25.902;2023-05-23T03:38:07;12.00;99.90
14985;DHT22;7588;62.368;25.902;2023-05-23T03:40:32;12.00;99.90
14985;DHT22;7588;62.368;25.902;2023-05-23T03:43:05;12.00;99.90
14985;DHT22;7588;62.368;25.902;2023-05-23T03:45:31;12.00;99.90
14985;DHT22;7588;62.368;25.902;2023-05-23T03:47:58;12.10;99.90
14985;DHT22;7588;62.368;25.902;2023-05-23T03:50:24;12.20;99.90
14985;DHT22;7588;62.368;25.902;2023-05-23T03:52:49;12.20;99.90
14985;DHT22;7588;62.368;25.902;2023-05-23T03:55:15;12.30;99.90
14985;DHT22;7588;62.368;25.902;2023-05-23T03:57:41;12.40;99.90
14985;DHT22;7588;62.368;25.902;2023-05-23T04:00:07;12.40;99.90
14985;DHT22;7588;62.368;25.902;2023-05-23T04:02:36;12.50;99.90
14985;DHT22;7588;62.368;25.902;2023-05-23T04:05:04;12.50;99.90
14985;DHT22;7588;62.368;25.902;2023-05-23T04:07:31;12.50;99.90
14985;DHT22;7588;62.368;25.902;2023-05-23T04:09:59;12.50;99.90
14985;DHT22;7588;62.368;25.902;2023-05-23T04:12:25;12.50;99.90
14985;DHT22;7588;62.368;25.902;2023-05-23T04:14:50;12.50;99.90
14985;DHT22;7588;62.368;25.902;2023-05-23T04:17:17;12.60;99.90
14985;DHT22;7588;62.368;25.902;2023-05-23T04:19:43;12.60;99.90
14985;DHT22;7588;62.368;25.902;2023-05-23T04:22:09;12.60;99.90
14985;DHT22;7588;62.368;25.902;2023-05-23T04:24:34;12.60;99.90
14985;DHT22;7588;62.368;25.902;2023-05-23T04:27:01;12.60;99.90
14985;DHT22;7588;62.368;25.902;2023-05-23T04:29:27;12.70;99.90
14985;DHT22;7588;62.368;25.902;2023-05-23T04:31:56;12.80;99.90
14985;DHT22;7588;62.368;25.902;2023-05-23T04:34:22;13.00;99.90
14985;DHT22;7588;62.368;25.902;2023-05-23T04:36:48;13.10;99.90
14985;DHT22;7588;62.368;25.902;2023-05-23T04:39:14;13.10;99.90
14985;DHT22;7588;62.368;25.902;2023-05-23T04:41:41;13.10;99.90
14985;DHT22;7588;62.368;25.902;2023-05-23T04:44:08;13.20;99.90
14985;DHT22;7588;62.368;25.902;2023-05-23T04:46:34;13.20;99.90
14985;DHT22;7588;62.368;25.902;2023-05-23T04:49:01;13.20;99.90
14985;DHT22;7588;62.368;25.902;2023-05-23T04:51:28;13.20;99.90
14985;DHT22;7588;62.368;25.902;2023-05-23T04:53:54;13.10;99.90
14985;DHT22;7588;62.368;25.902;2023-05-23T04:56:20;13.10;99.90
14985;DHT22;7588;62.368;25.902;2023-05-23T04:58:46;13.10;99.90
14985;DHT22;7588;62.368;25.902;2023-05-23T05:01:12;13.20;99.90
14985;DHT22;7588;62.368;25.902;2023-05-23T05:03:38;13.30;99.90
14985;DHT22;7588;62.368;25.902;2023-05-23T05:06:05;13.30;99.90
14985;DHT22;7588;62.368;25.902;2023-05-23T05:08:31;13.40;99.90
14985;DHT22;7588;62.368;25.902;2023-05-23T05:10:57;13.40;99.90
14985;DHT22;7588;62.368;25.902;2023-05-23T05:13:22;13.50;99.90
14985;DHT22;7588;62.368;25.902;2023-05-23T05:15:48;13.50;99.90
14985;DHT22;7588;62.368;25.902;2023-05-23T05:18:14;13.60;99.90
14985;DHT22;7588;62.368;25.902;2023-05-23T05:20:40;13.70;99.90
14985;DHT22;7588;62.368;25.902;2023-05-23T05:23:06;13.80;99.90
14985;DHT22;7588;62.368;25.902;2023-05-23T05:25:34;13.90;99.90
14985;DHT22;7588;62.368;25.902;2023-05-23T05:28:01;14.10;99.90
14985;DHT22;7588;62.368;25.902;2023-05-23T05:30:31;14.20;99.90
14985;DHT22;7588;62.368;25.902;2023-05-23T05:33:02;14.50;99.90
14985;DHT22;7588;62.368;25.902;2023-05-23T05:35:31;14.80;99.90
14985;DHT22;7588;62.368;25.902;2023-05-23T05:37:58;15.10;99.90
14985;DHT22;7588;62.368;25.902;2023-05-23T05:40:24;15.30;99.90
14985;DHT22;7588;62.368;25.902;2023-05-23T05:42:50;16.00;99.90
14985;DHT22;7588;62.368;25.902;2023-05-23T05:45:15;16.20;99.90
14985;DHT22;7588;62.368;25.902;2023-05-23T05:47:41;16.30;99.90
14985;DHT22;7588;62.368;25.902;2023-05-23T05:50:07;16.00;99.90
14985;DHT22;7588;62.368;25.902;2023-05-23T05:52:34;15.70;99.90
14985;DHT22;7588;62.368;25.902;2023-05-23T05:55:07;15.40;99.90
14985;DHT22;7588;62.368;25.902;2023-05-23T05:57:34;15.40;99.90
14985;DHT22;7588;62.368;25.902;2023-05-23T06:00:04;15.30;99.90
14985;DHT22;7588;62.368;25.902;2023-05-23T06:02:37;15.10;99.90
14985;DHT22;7588;62.368;25.902;2023-05-23T06:05:03;14.90;99.90
14985;DHT22;7588;62.368;25.902;2023-05-23T06:07:29;14.70;99.90
14985;DHT22;7588;62.368;25.902;2023-05-23T06:09:54;14.60;99.90
14985;DHT22;7588;62.368;25.902;2023-05-23T06:12:20;14.50;99.90
14985;DHT22;7588;62.368;25.902;2023-05-23T06:14:46;14.50;99.90
14985;DHT22;7588;62.368;25.902;2023-05-23T06:17:11;14.50;99.90
14985;DHT22;7588;62.368;25.902;2023-05-23T06:19:37;14.50;99.90
14985;DHT22;7588;62.368;25.902;2023-05-23T06:22:03;14.40;99.90
14985;DHT22;7588;62.368;25.902;2023-05-23T06:24:28;14.40;99.90
14985;DHT22;7588;62.368;25.902;2023-05-23T06:26:54;14.30;99.90
14985;DHT22;7588;62.368;25.902;2023-05-23T06:29:20;14.30;99.90
14985;DHT22;7588;62.368;25.902;2023-05-23T06:31:45;14.40;99.90
14985;DHT22;7588;62.368;25.902;2023-05-23T06:34:11;14.40;99.90
14985;DHT22;7588;62.368;25.902;2023-05-23T06:36:37;14.90;99.90
14985;DHT22;7588;62.368;25.902;2023-05-23T06:39:02;15.40;99.90
14985;DHT22;7588;62.368;25.902;2023-05-23T06:41:28;15.90;99.90
14985;DHT22;7588;62.368;25.902;2023-05-23T06:43:54;16.10;99.90
14985;DHT22;7588;62.368;25.902;2023-05-23T06:46:19;16.20;99.90
14985;DHT22;7588;62.368;25.902;2023-05-23T06:48:45;16.20;99.90
14985;DHT22;7588;62.368;25.902;2023-05-23T06:51:11;16.60;99.90
14985;DHT22;7588;62.368;25.902;2023-05-23T06:53:36;17.00;99.90
14985;DHT22;7588;62.368;25.902;2023-05-23T06:56:02;17.60;99.90
14985;DHT22;7588;62.368;25.902;2023-05-23T06:58:28;18.40;99.90
14985;DHT22;7588;62.368;25.902;2023-05-23T07:00:54;19.10;99.90
14985;DHT22;7588;62.368;25.902;2023-05-23T07:03:20;19.80;99.90
14985;DHT22;7588;62.368;25.902;2023-05-23T07:05:45;19.10;99.90
14985;DHT22;7588;62.368;25.902;2023-05-23T07:08:11;18.90;99.90
14985;DHT22;7588;62.368;25.902;2023-05-23T07:10:37;18.80;99.90
14985;DHT22;7588;62.368;25.902;2023-05-23T07:13:05;19.10;99.90
14985;DHT22;7588;62.368;25.902;2023-05-23T07:15:31;18.90;99.90
14985;DHT22;7588;62.368;25.902;2023-05-23T07:17:56;18.80;99.90
14985;DHT22;7588;62.368;25.902;2023-05-23T07:20:22;18.90;99.90
14985;DHT22;7588;62.368;25.902;2023-05-23T07:22:48;19.20;99.90
14985;DHT22;7588;62.368;25.902;2023-05-23T07:25:16;19.20;99.90
14985;DHT22;7588;62.368;25.902;2023-05-23T07:27:41;19.00;99.90
14985;DHT22;7588;62.368;25.902;2023-05-23T07:30:08;18.60;99.90
14985;DHT22;7588;62.368;25.902;2023-05-23T07:32:36;18.20;99.90
14985;DHT22;7588;62.368;25.902;2023-05-23T07:35:02;18.30;99.90
14985;DHT22;7588;62.368;25.902;2023-05-23T07:37:28;18.30;99.90
14985;DHT22;7588;62.368;25.902;2023-05-23T07:39:54;17.80;99.90
14985;DHT22;7588;62.368;25.902;2023-05-23T07:42:19;17.40;99.90
14985;DHT22;7588;62.368;25.902;2023-05-23T07:44:45;16.90;99.90
14985;DHT22;7588;62.368;25.902;2023-05-23T07:47:11;16.50;99.90
14985;DHT22;7588;62.368;25.902;2023-05-23T07:49:36;16.30;99.90
14985;DHT22;7588;62.368;25.902;2023-05-23T07:52:02;16.30;99.90
14985;DHT22;7588;62.368;25.902;2023-05-23T07:54:28;16.50;99.90
14985;DHT22;7588;62.368;25.902;2023-05-23T07:56:53;16.90;99.90
14985;DHT22;7588;62.368;25.902;2023-05-23T07:59:19;17.40;99.90
14985;DHT22;7588;62.368;25.902;2023-05-23T08:01:45;17.70;99.90
14985;DHT22;7588;62.368;25.902;2023-05-23T08:04:10;18.30;99.90
14985;DHT22;7588;62.368;25.902;2023-05-23T08:06:36;18.80;99.90
14985;DHT22;7588;62.368;25.902;2023-05-23T08:09:03;19.20;99.90
14985;DHT22;7588;62.368;25.902;2023-05-23T08:11:30;19.60;99.90
14985;DHT22;7588;62.368;25.902;2023-05-23T08:13:56;19.50;99.80
14985;DHT22;7588;62.368;25.902;2023-05-23T08:16:24;19.00;99.90
14985;DHT22;7588;62.368;25.902;2023-05-23T08:18:52;18.50;99.90
14985;DHT22;7588;62.368;25.902;2023-05-23T08:21:17;18.20;99.90
14985;DHT22;7588;62.368;25.902;2023-05-23T08:23:43;17.80;99.90
14985;DHT22;7588;62.368;25.902;2023-05-23T08:26:09;17.80;99.90
14985;DHT22;7588;62.368;25.902;2023-05-23T08:28:34;17.70;99.90
14985;DHT22;7588;62.368;25.902;2023-05-23T08:31:00;17.50;99.90
14985;DHT22;7588;62.368;25.902;2023-05-23T08:33:26;17.30;99.90
14985;DHT22;7588;62.368;25.902;2023-05-23T08:35:51;17.10;99.90
14985;DHT22;7588;62.368;25.902;2023-05-23T08:38:17;17.10;99.90
14985;DHT22;7588;62.368;25.902;2023-05-23T08:40:49;17.30;99.90
14985;DHT22;7588;62.368;25.902;2023-05-23T08:43:17;17.40;99.90
14985;DHT22;7588;62.368;25.902;2023-05-23T08:45:42;17.50;99.90
14985;DHT22;7588;62.368;25.902;2023-05-23T08:48:12;17.70;99.90
14985;DHT22;7588;62.368;25.902;2023-05-23T08:50:39;17.80;99.90
14985;DHT22;7588;62.368;25.902;2023-05-23T08:53:07;17.60;99.90
14985;DHT22;7588;62.368;25.902;2023-05-23T08:55:34;17.90;99.90
14985;DHT22;7588;62.368;25.902;2023-05-23T08:58:02;18.10;99.90
14985;DHT22;7588;62.368;25.902;2023-05-23T09:00:28;18.50;99.90
14985;DHT22;7588;62.368;25.902;2023-05-23T09:02:54;19.20;99.90
14985;DHT22;7588;62.368;25.902;2023-05-23T09:05:21;19.60;99.90
14985;DHT22;7588;62.368;25.902;2023-05-23T09:07:47;19.70;99.90
14985;DHT22;7588;62.368;25.902;2023-05-23T09:10:14;20.10;99.90
14985;DHT22;7588;62.368;25.902;2023-05-23T09:12:44;20.10;99.90
14985;DHT22;7588;62.368;25.902;2023-05-23T09:15:11;20.20;99.90
14985;DHT22;7588;62.368;25.902;2023-05-23T09:17:37;19.80;99.90
14985;DHT22;7588;62.368;25.902;2023-05-23T09:20:09;19.40;98.10
14985;DHT22;7588;62.368;25.902;2023-05-23T09:22:36;19.40;99.90
14985;DHT22;7588;62.368;25.902;2023-05-23T09:25:02;19.30;99.90
14985;DHT22;7588;62.368;25.902;2023-05-23T09:27:27;19.20;99.90
14985;DHT22;7588;62.368;25.902;2023-05-23T09:29:53;18.80;99.90
14985;DHT22;7588;62.368;25.902;2023-05-23T09:32:20;18.50;99.90
14985;DHT22;7588;62.368;25.902;2023-05-23T09:34:59;18.00;99.90
14985;DHT22;7588;62.368;25.902;2023-05-23T09:39:56;17.20;99.90
14985;DHT22;7588;62.368;25.902;2023-05-23T09:42:22;17.10;99.90
14985;DHT22;7588;62.368;25.902;2023-05-23T09:44:49;16.90;99.90
14985;DHT22;7588;62.368;25.902;2023-05-23T09:47:15;16.70;99.90
14985;DHT22;7588;62.368;25.902;2023-05-23T09:49:45;16.40;99.90
14985;DHT22;7588;62.368;25.902;2023-05-23T09:52:11;16.50;99.90
14985;DHT22;7588;62.368;25.902;2023-05-23T09:54:38;16.70;99.90
14985;DHT22;7588;62.368;25.902;2023-05-23T09:57:09;16.70;99.90
14985;DHT22;7588;62.368;25.902;2023-05-23T09:59:38;16.90;99.90
14985;DHT22;7588;62.368;25.902;2023-05-23T10:02:07;17.20;99.90
14985;DHT22;7588;62.368;25.902;2023-05-23T10:04:37;17.20;99.90
14985;DHT22;7588;62.368;25.902;2023-05-23T10:07:13;17.30;99.90
14985;DHT22;7588;62.368;25.902;2023-05-23T10:09:46;17.40;99.90
14985;DHT22;7588;62.368;25.902;2023-05-23T10:12:36;17.40;99.90
14985;DHT22;7588;62.368;25.902;2023-05-23T10:15:04;17.10;99.90
14985;DHT22;7588;62.368;25.902;2023-05-23T10:17:38;16.90;99.90
14985;DHT22;7588;62.368;25.902;2023-05-23T10:20:14;16.70;99.90
14985;DHT22;7588;62.368;25.902;2023-05-23T10:22:41;16.60;99.90
14985;DHT22;7588;62.368;25.902;2023-05-23T10:25:07;16.30;99.90
14985;DHT22;7588;62.368;25.902;2023-05-23T10:27:38;16.10;99.90
14985;DHT22;7588;62.368;25.902;2023-05-23T10:30:05;15.80;99.90
14985;DHT22;7588;62.368;25.902;2023-05-23T10:32:32;15.70;99.90
14985;DHT22;7588;62.368;25.902;2023-05-23T10:35:14;15.70;99.90
14985;DHT22;7588;62.368;25.902;2023-05-23T10:38:06;15.80;99.90
14985;DHT22;7588;62.368;25.902;2023-05-23T10:45:45;16.00;99.90
14985;DHT22;7588;62.368;25.902;2023-05-23T10:51:06;16.30;99.90
14985;DHT22;7588;62.368;25.902;2023-05-23T10:53:35;16.40;99.90
14985;DHT22;7588;62.368;25.902;2023-05-23T10:56:04;16.60;99.90
14985;DHT22;7588;62.368;25.902;2023-05-23T10:58:30;16.60;99.90
14985;DHT22;7588;62.368;25.902;2023-05-23T11:01:15;16.80;99.90
14985;DHT22;7588;62.368;25.902;2023-05-23T11:32:11;15.30;99.90
14985;DHT22;7588;62.368;25.902;2023-05-23T11:34:38;16.20;99.90
14985;DHT22;7588;62.368;25.902;2023-05-23T11:37:04;16.30;99.90
14985;DHT22;7588;62.368;25.902;2023-05-23T11:39:30;16.50;99.90
14985;DHT22;7588;62.368;25.902;2023-05-23T11:42:02;16.70;99.90
14985;DHT22;7588;62.368;25.902;2023-05-23T11:44:28;16.60;99.90
14985;DHT22;7588;62.368;25.902;2023-05-23T11:47:04;16.60;99.90
14985;DHT22;7588;62.368;25.902;2023-05-23T11:49:34;16.60;99.90
14985;DHT22;7588;62.368;25.902;2023-05-23T11:52:01;16.60;99.90
14985;DHT22;7588;62.368;25.902;2023-05-23T11:54:27;16.70;99.90
14985;DHT22;7588;62.368;25.902;2023-05-23T11:56:54;16.60;99.90
14985;DHT22;7588;62.368;25.902;2023-05-23T11:59:23;16.50;99.90
14985;DHT22;7588;62.368;25.902;2023-05-23T12:01:53;16.50;99.90
14985;DHT22;7588;62.368;25.902;2023-05-23T12:04:20;16.40;99.90
14985;DHT22;7588;62.368;25.902;2023-05-23T12:06:46;16.50;99.90
14985;DHT22;7588;62.368;25.902;2023-05-23T12:09:15;16.70;99.90
14985;DHT22;7588;62.368;25.902;2023-05-23T12:11:42;17.00;99.90
14985;DHT22;7588;62.368;25.902;2023-05-23T12:14:08;17.30;99.90
14985;DHT22;7588;62.368;25.902;2023-05-23T12:16:38;17.50;99.90
14985;DHT22;7588;62.368;25.902;2023-05-23T12:19:04;17.70;99.90
14985;DHT22;7588;62.368;25.902;2023-05-23T12:21:47;17.90;99.90
14985;DHT22;7588;62.368;25.902;2023-05-23T12:24:21;18.20;99.90
14985;DHT22;7588;62.368;25.902;2023-05-23T12:26:51;18.30;99.90
14985;DHT22;7588;62.368;25.902;2023-05-23T12:29:18;18.30;99.90
14985;DHT22;7588;62.368;25.902;2023-05-23T12:31:47;18.20;99.90
14985;DHT22;7588;62.368;25.902;2023-05-23T12:34:13;18.30;99.90
14985;DHT22;7588;62.368;25.902;2023-05-23T12:36:40;18.50;99.90
14985;DHT22;7588;62.368;25.902;2023-05-23T12:39:07;18.50;99.90
14985;DHT22;7588;62.368;25.902;2023-05-23T12:41:33;18.60;99.90
14985;DHT22;7588;62.368;25.902;2023-05-23T12:44:00;18.90;99.90
14985;DHT22;7588;62.368;25.902;2023-05-23T12:46:27;19.10;99.90
14985;DHT22;7588;62.368;25.902;2023-05-23T12:48:53;19.20;99.90
14985;DHT22;7588;62.368;25.902;2023-05-23T12:51:19;19.50;99.90
14985;DHT22;7588;62.368;25.902;2023-05-23T12:53:45;19.40;99.90
14985;DHT22;7588;62.368;25.902;2023-05-23T12:56:11;19.40;99.90
14985;DHT22;7588;62.368;25.902;2023-05-23T12:58:37;19.30;99.90
14985;DHT22;7588;62.368;25.902;2023-05-23T13:01:02;19.10;99.90
14985;DHT22;7588;62.368;25.902;2023-05-23T13:03:29;19.20;99.90
14985;DHT22;7588;62.368;25.902;2023-05-23T13:05:58;19.50;99.90
14985;DHT22;7588;62.368;25.902;2023-05-23T13:08:27;19.80;99.90
14985;DHT22;7588;62.368;25.902;2023-05-23T13:10:54;19.80;99.90
14985;DHT22;7588;62.368;25.902;2023-05-23T13:13:20;19.80;99.90
14985;DHT22;7588;62.368;25.902;2023-05-23T13:15:45;20.30;99.90
14985;DHT22;7588;62.368;25.902;2023-05-23T13:18:12;20.30;99.90
14985;DHT22;7588;62.368;25.902;2023-05-23T13:20:37;20.50;98.90
14985;DHT22;7588;62.368;25.902;2023-05-23T13:23:03;20.70;99.80
14985;DHT22;7588;62.368;25.902;2023-05-23T13:25:29;20.50;99.90
14985;DHT22;7588;62.368;25.902;2023-05-23T13:27:55;20.30;98.70
14985;DHT22;7588;62.368;25.902;2023-05-23T13:30:22;20.00;98.80
14985;DHT22;7588;62.368;25.902;2023-05-23T13:32:48;19.70;99.10
14985;DHT22;7588;62.368;25.902;2023-05-23T13:35:14;19.50;99.60
14985;DHT22;7588;62.368;25.902;2023-05-23T13:37:40;19.20;99.90
14985;DHT22;7588;62.368;25.902;2023-05-23T13:40:06;19.10;99.60
14985;DHT22;7588;62.368;25.902;2023-05-23T13:42:33;19.00;99.90
14985;DHT22;7588;62.368;25.902;2023-05-23T13:44:59;18.90;99.90
14985;DHT22;7588;62.368;25.902;2023-05-23T13:47:24;18.80;99.90
14985;DHT22;7588;62.368;25.902;2023-05-23T13:49:50;18.80;99.90
14985;DHT22;7588;62.368;25.902;2023-05-23T13:52:16;18.90;99.90
14985;DHT22;7588;62.368;25.902;2023-05-23T13:54:42;18.90;99.90
14985;DHT22;7588;62.368;25.902;2023-05-23T13:57:07;18.90;99.90
14985;DHT22;7588;62.368;25.902;2023-05-23T13:59:33;18.80;99.90
14985;DHT22;7588;62.368;25.902;2023-05-23T14:01:59;18.80;99.90
14985;DHT22;7588;62.368;25.902;2023-05-23T14:04:25;19.00;99.90
14985;DHT22;7588;62.368;25.902;2023-05-23T14:06:51;18.90;99.90
14985;DHT22;7588;62.368;25.902;2023-05-23T14:09:17;18.90;99.90
14985;DHT22;7588;62.368;25.902;2023-05-23T14:11:43;19.10;99.90
14985;DHT22;7588;62.368;25.902;2023-05-23T14:14:09;19.20;99.90
14985;DHT22;7588;62.368;25.902;2023-05-23T14:16:34;19.20;99.90
14985;DHT22;7588;62.368;25.902;2023-05-23T14:19:00;19.10;99.90
14985;DHT22;7588;62.368;25.902;2023-05-23T14:21:26;19.00;99.90
14985;DHT22;7588;62.368;25.902;2023-05-23T14:23:52;18.90;99.90
14985;DHT22;7588;62.368;25.902;2023-05-23T14:26:18;18.70;99.90
14985;DHT22;7588;62.368;25.902;2023-05-23T14:28:44;18.50;99.90
14985;DHT22;7588;62.368;25.902;2023-05-23T14:31:10;18.40;99.90
14985;DHT22;7588;62.368;25.902;2023-05-23T14:33:35;18.30;99.90
14985;DHT22;7588;62.368;25.902;2023-05-23T14:36:01;18.30;99.90
14985;DHT22;7588;62.368;25.902;2023-05-23T14:38:27;18.30;99.90
14985;DHT22;7588;62.368;25.902;2023-05-23T14:40:53;18.30;99.90
14985;DHT22;7588;62.368;25.902;2023-05-23T14:43:19;18.20;99.90
14985;DHT22;7588;62.368;25.902;2023-05-23T14:45:45;18.20;99.90
14985;DHT22;7588;62.368;25.902;2023-05-23T14:48:11;18.30;99.90
14985;DHT22;7588;62.368;25.902;2023-05-23T14:50:37;18.30;99.90
14985;DHT22;7588;62.368;25.902;2023-05-23T14:53:03;18.40;99.90
14985;DHT22;7588;62.368;25.902;2023-05-23T14:55:28;18.60;99.90
14985;DHT22;7588;62.368;25.902;2023-05-23T14:57:54;18.60;99.90
14985;DHT22;7588;62.368;25.902;2023-05-23T15:00:21;18.60;99.90
14985;DHT22;7588;62.368;25.902;2023-05-23T15:02:47;18.50;99.90
14985;DHT22;7588;62.368;25.902;2023-05-23T15:05:12;18.60;99.90
14985;DHT22;7588;62.368;25.902;2023-05-23T15:07:39;18.60;99.90
14985;DHT22;7588;62.368;25.902;2023-05-23T15:10:06;18.60;99.90
14985;DHT22;7588;62.368;25.902;2023-05-23T15:12:32;18.60;99.90
14985;DHT22;7588;62.368;25.902;2023-05-23T15:14:58;18.60;99.90
14985;DHT22;7588;62.368;25.902;2023-05-23T15:17:37;18.70;99.90
14985;DHT22;7588;62.368;25.902;2023-05-23T15:20:03;18.70;99.90
14985;DHT22;7588;62.368;25.902;2023-05-23T15:22:28;18.70;99.90
14985;DHT22;7588;62.368;25.902;2023-05-23T15:24:54;18.80;99.90
14985;DHT22;7588;62.368;25.902;2023-05-23T15:27:20;18.70;99.90
14985;DHT22;7588;62.368;25.902;2023-05-23T15:29:46;18.70;99.90
14985;DHT22;7588;62.368;25.902;2023-05-23T15:32:12;18.70;99.90
14985;DHT22;7588;62.368;25.902;2023-05-23T15:34:38;18.70;99.90
14985;DHT22;7588;62.368;25.902;2023-05-23T15:37:03;18.70;99.90
14985;DHT22;7588;62.368;25.902;2023-05-23T15:39:29;18.60;99.90
14985;DHT22;7588;62.368;25.902;2023-05-23T15:41:55;18.60;99.90
14985;DHT22;7588;62.368;25.902;2023-05-23T15:44:21;18.60;99.90
14985;DHT22;7588;62.368;25.902;2023-05-23T15:46:48;18.50;99.90
14985;DHT22;7588;62.368;25.902;2023-05-23T15:49:14;18.50;99.90
14985;DHT22;7588;62.368;25.902;2023-05-23T15:51:40;18.50;99.90
14985;DHT22;7588;62.368;25.902;2023-05-23T15:54:06;18.50;99.90
14985;DHT22;7588;62.368;25.902;2023-05-23T15:56:31;18.70;99.90
14985;DHT22;7588;62.368;25.902;2023-05-23T15:58:57;18.80;99.90
14985;DHT22;7588;62.368;25.902;2023-05-23T16:01:23;18.80;99.90
14985;DHT22;7588;62.368;25.902;2023-05-23T16:03:49;18.80;99.90
14985;DHT22;7588;62.368;25.902;2023-05-23T16:06:14;18.70;99.90
14985;DHT22;7588;62.368;25.902;2023-05-23T16:08:40;18.70;99.90
14985;DHT22;7588;62.368;25.902;2023-05-23T16:11:06;18.60;99.90
14985;DHT22;7588;62.368;25.902;2023-05-23T16:13:31;18.50;99.90
14985;DHT22;7588;62.368;25.902;2023-05-23T16:15:57;18.50;99.90
14985;DHT22;7588;62.368;25.902;2023-05-23T16:18:23;18.40;99.90